Berkeley, CA

5:26 AM PDT on August 27, 2014 (GMT -0700)
Hayward Executive | Change Station
CLOSE
Current Station
Airport
Location: Hayward,
Elevation: 46 ft
Nearby Weather Stations

Elev 46 ft 37.66 °N, 122.12 °W | Updated 32 minutes ago

Clear
Clear
63 °F
Feels Like 63 °F
N
4
Wind Variable Wind from NE

Today
High -- | Low -- °F
--% Chance of Precip.
Yesterday
High -- | Low -- °F
Precip. -- in
6:34 AM 7:45 PM
Waxing Crescent, 3% visible
Pressure 30.05 in
Visibility 10.0 miles
Clouds Clear
Dew Point 58 °F
Humidity 84%
Rainfall 0.00 in
Snow Depth Not available.
UV 0 out of 12
Pollen 7.00 out of 12
Ozone Good
PM2.5 Good
Flu Activity Not available.
METAR KHWD 271154Z 04003KT 10SM CLR 17/14 A3002 RMK AO2 SLP174 T01720144 10189 20172 51004

More Conditions Fewer Conditions

Pressure 30.05 in
Visibility 10.0 miles
Clouds Clear
Dew Point 58 °F
Humidity 84%
Rainfall 0.00 in
Snow Depth Not available.
UV 0 out of 12
Pollen 7.00 out of 12
Ozone Good
PM2.5 Good
Flu Activity Not available.
METAR KHWD 271154Z 04003KT 10SM CLR 17/14 A3002 RMK AO2 SLP174 T01720144 10189 20172 51004

More Conditions Fewer Conditions

10-Day Weather Forecast

Almanac

Astronomy

Aug. 27, 2014 Rise Set
Actual Time 6:34 AM PDT 7:45 PM PDT
Civil Twilight 6:07 AM PDT 8:12 PM PDT
Nautical Twilight 5:35 AM PDT 8:44 PM PDT
Astronomical Twilight 5:01 AM PDT 9:18 PM PDT
Moon 8:33 AM PDT 8:43 PM PDT
Length of Visible Light 14h 04m
Length of Day
13h 10m
Tomorrow will be 2m 18s shorter.
Waxing Crescent, 3% of the Moon is Illuminated
Today
Waxing Crescent
Sep 2
First Quarter
Sep 8
Full
Sep 15
Last Quarter
Sep 24
New

Today's Extremes

State Highs State Lows

Community

WunderPhotos

Upload Photos

1,747,675 photos uploaded!

Nearby

Air Quality

  Air Quality AQ Index Pollutant
Yesterday Good
OZONE
Yesterday Good
PM2.5
Current Good
PM2.5
Current Good
OZONE
Wednesday Good
PM2.5
Thursday Good
PM2.5
Friday Good
PM2.5
Saturday Good
PM2.5
Sunday Good
PM2.5

Snow Depth

Station Depth Elevation
Echo Peak 1 in 7800 ft
Blue Lakes 0 in 8000 ft
Forestdale Creek 0 in 8029 ft
Rubicon #2 0 in 7500 ft
Fallen Leaf 0 in 6300 ft

Earthquake Activity

City Distance Mag. Time & Date
Soledad, California 111 miles 2.6 12:15 PM PDT
2014-08-26
Napa, California 25 miles 2.5 10:56 AM PDT
2014-08-26
Napa, California 26 miles 3.0 6:45 AM PDT
2014-08-26
American Canyon, California 21 miles 2.8 6:12 AM PDT
2014-08-26
Minimum magnitude displayed is 2.5.

Coastal Water Temperatures

Place Temperature
San Francisco, CA 64.9 °F
Richmond, CA 66.9 °F
Port Chicago, CA 69.1 °F

Nearby Weather Stations